Time;durP1;ratioP1;P1;durP2;ratioP2;P2;SDS_P1;SDS_P2;PMS_P1;PMS_P2;Temp;Humidity;BMP_temperature;BMP_pressure;BME280_temperature;BME280_humidity;BME280_pressure;Samples;Min_cycle;Max_cycle;Signal;HPM_P1;HPM_P2
2022/03/12 00:01:16;;;;;;;7.77;4.07;;;;;6.20;100953.00;;;;5082351;28;20305;-72
2022/03/12 00:04:04;;;;;;;9.00;4.40;;;;;6.00;100952.00;;;;5076735;28;20242;-70
2022/03/12 00:06:52;;;;;;;7.33;4.47;;;;;6.00;100958.00;;;;5068312;28;20235;-70
2022/03/12 00:09:38;;;;;;;7.60;5.00;;;;;6.00;100959.00;;;;5078850;28;20227;-70
2022/03/12 00:12:25;;;;;;;7.50;4.43;;;;;6.00;100958.00;;;;5068969;28;20231;-70
2022/03/12 00:15:14;;;;;;;7.23;4.30;;;;;6.20;100954.00;;;;5062165;28;20332;-70
2022/03/12 00:18:00;;;;;;;16.90;4.97;;;;;6.20;100963.00;;;;5047941;28;20971;-68
2022/03/12 00:20:48;;;;;;;8.13;4.40;;;;;6.20;100960.00;;;;5080214;28;20321;-71
2022/03/12 00:23:35;;;;;;;8.27;3.97;;;;;6.10;100959.00;;;;5101836;28;20218;-71
2022/03/12 00:26:23;;;;;;;10.17;4.60;;;;;6.10;100958.00;;;;5075732;28;20247;-71
2022/03/12 00:29:12;;;;;;;9.43;4.53;;;;;6.10;100957.00;;;;5080652;28;20272;-70
2022/03/12 00:31:59;;;;;;;11.17;4.37;;;;;6.10;100963.00;;;;5067979;28;20346;-70
2022/03/12 00:34:45;;;;;;;10.97;4.80;;;;;6.20;100956.00;;;;5083884;28;20222;-70
2022/03/12 00:37:31;;;;;;;10.10;4.47;;;;;6.10;100953.00;;;;5102638;28;20234;-69
2022/03/12 00:40:21;;;;;;;8.13;4.90;;;;;6.00;100951.00;;;;5102184;28;20262;-67
2022/03/12 00:43:09;;;;;;;7.07;4.33;;;;;6.10;100972.00;;;;5103007;28;20222;-70
2022/03/12 00:45:55;;;;;;;8.40;4.40;;;;;6.20;100971.00;;;;5071722;28;20279;-69
2022/03/12 00:48:42;;;;;;;8.27;4.50;;;;;6.30;100975.00;;;;5073779;28;20346;-69
2022/03/12 00:51:28;;;;;;;9.33;5.30;;;;;6.30;100979.00;;;;5077510;28;20239;-71
2022/03/12 00:54:14;;;;;;;7.37;4.23;;;;;6.30;100978.00;;;;5089245;28;20226;-71
2022/03/12 00:57:02;;;;;;;6.77;4.03;;;;;6.30;100985.00;;;;5087820;28;20795;-70
2022/03/12 00:59:48;;;;;;;9.57;4.50;;;;;6.40;100974.00;;;;5104441;28;20222;-70
2022/03/12 01:02:34;;;;;;;8.47;4.57;;;;;6.30;100969.00;;;;5098774;28;20766;-71
2022/03/12 01:05:24;;;;;;;8.10;4.53;;;;;6.20;100976.00;;;;5105835;28;20288;-70
2022/03/12 01:08:11;;;;;;;7.40;4.20;;;;;6.30;100966.00;;;;5104392;28;20288;-70
2022/03/12 01:11:00;;;;;;;7.70;4.23;;;;;6.20;100967.00;;;;5106877;28;20293;-71
2022/03/12 01:13:47;;;;;;;8.77;4.00;;;;;6.30;100962.00;;;;5084924;28;20348;-71
2022/03/12 01:16:34;;;;;;;6.40;4.17;;;;;6.30;100966.00;;;;5107055;28;20572;-69
2022/03/12 01:19:20;;;;;;;5.87;3.90;;;;;6.40;100969.00;;;;5101280;27;20230;-70
2022/03/12 01:22:07;;;;;;;7.43;4.40;;;;;6.30;100975.00;;;;5088601;28;20238;-70
2022/03/12 01:24:54;;;;;;;7.63;4.43;;;;;6.40;100970.00;;;;5105814;28;20287;-71
2022/03/12 01:27:40;;;;;;;6.50;4.10;;;;;6.40;100968.00;;;;5102217;28;20615;-70
2022/03/12 01:30:30;;;;;;;8.83;4.80;;;;;6.40;100972.00;;;;5103657;28;20288;-70
2022/03/12 01:33:18;;;;;;;7.30;3.93;;;;;6.40;100971.00;;;;5098838;28;20246;-69
2022/03/12 01:36:05;;;;;;;8.37;4.37;;;;;6.40;100970.00;;;;5097144;28;20222;-70
2022/03/12 01:38:52;;;;;;;7.30;4.27;;;;;6.40;100962.00;;;;5074290;28;20226;-70
2022/03/12 01:41:41;;;;;;;9.23;4.40;;;;;6.40;100962.00;;;;5105671;27;20695;-70
2022/03/12 01:44:27;;;;;;;8.00;3.87;;;;;6.40;100972.00;;;;5085772;28;20251;-70
2022/03/12 01:47:15;;;;;;;7.03;4.47;;;;;6.40;100964.00;;;;5076561;28;20332;-70
2022/03/12 01:50:03;;;;;;;6.67;4.13;;;;;6.50;100945.00;;;;5066873;28;20252;-69
2022/03/12 01:52:49;;;;;;;8.60;5.20;;;;;6.40;100967.00;;;;5096940;28;20230;-68
2022/03/12 01:55:39;;;;;;;7.73;4.20;;;;;6.40;100974.00;;;;5102181;28;20582;-69
2022/03/12 01:58:26;;;;;;;8.70;4.30;;;;;6.40;100978.00;;;;5105721;28;20235;-70
2022/03/12 02:01:13;;;;;;;7.10;3.93;;;;;6.30;100978.00;;;;5111418;28;20280;-70
2022/03/12 02:04:04;;;;;;;7.70;4.37;;;;;6.30;100977.00;;;;5104854;28;20215;-71
2022/03/12 02:06:51;;;;;;;10.57;4.53;;;;;6.30;100983.00;;;;5070828;28;20825;-70
2022/03/12 02:09:37;;;;;;;10.00;4.50;;;;;6.30;100978.00;;;;5082906;28;20329;-70
2022/03/12 02:12:24;;;;;;;7.07;4.40;;;;;6.30;100982.00;;;;5085269;28;20231;-70
2022/03/12 02:15:10;;;;;;;9.63;4.47;;;;;6.40;100980.00;;;;5081944;28;20290;-71
2022/03/12 02:17:56;;;;;;;7.27;4.50;;;;;6.30;100975.00;;;;5091940;28;20214;-70
2022/03/12 02:20:44;;;;;;;10.93;4.37;;;;;6.30;100977.00;;;;5066905;28;20255;-71
2022/03/12 02:23:45;;;;;;;8.33;4.57;;;;;6.30;100971.00;;;;5073708;28;20706;-69
2022/03/12 02:26:31;;;;;;;7.77;4.30;;;;;6.40;100978.00;;;;5070435;28;20775;-70
2022/03/12 02:29:20;;;;;;;8.73;4.93;;;;;6.40;100985.00;;;;5057404;28;20228;-69
2022/03/12 02:32:10;;;;;;;9.67;4.80;;;;;6.40;100984.00;;;;5074147;28;20744;-69
2022/03/12 02:34:58;;;;;;;9.23;5.00;;;;;6.40;100986.00;;;;5080730;28;20297;-69
2022/03/12 02:37:49;;;;;;;8.63;4.50;;;;;6.40;100987.00;;;;5087088;28;20321;-69
2022/03/12 02:40:40;;;;;;;7.73;4.13;;;;;6.40;100981.00;;;;5086640;28;20289;-69
2022/03/12 02:43:27;;;;;;;8.60;4.57;;;;;6.50;100970.00;;;;5089932;28;20227;-69
2022/03/12 02:46:15;;;;;;;8.60;5.03;;;;;6.50;100993.00;;;;5091934;28;20226;-71
2022/03/12 02:49:02;;;;;;;8.17;4.60;;;;;6.50;100970.00;;;;5084284;28;20226;-71
2022/03/12 02:51:49;;;;;;;8.23;4.57;;;;;6.40;100985.00;;;;5105213;28;20374;-66
2022/03/12 02:54:36;;;;;;;8.70;5.07;;;;;6.50;100970.00;;;;5089669;28;20227;-69
2022/03/12 02:57:24;;;;;;;8.23;4.70;;;;;6.60;100985.00;;;;5079545;28;20237;-69
2022/03/12 03:00:12;;;;;;;8.83;4.37;;;;;6.60;100985.00;;;;5092878;28;20384;-70
2022/03/12 03:03:01;;;;;;;10.00;4.97;;;;;6.50;100991.00;;;;5064264;28;20281;-69
2022/03/12 03:05:48;;;;;;;8.13;5.07;;;;;6.60;101000.00;;;;5082117;28;20297;-69
2022/03/12 03:08:39;;;;;;;7.80;4.13;;;;;6.70;100997.00;;;;5081846;28;20227;-68
2022/03/12 03:11:26;;;;;;;8.13;4.47;;;;;6.70;101003.00;;;;5084747;28;20246;-69
2022/03/12 03:14:19;;;;;;;7.57;4.67;;;;;6.80;101003.00;;;;5082661;28;20604;-72
2022/03/12 03:17:05;;;;;;;9.20;4.77;;;;;6.80;101006.00;;;;5093089;28;20246;-69
2022/03/12 03:19:53;;;;;;;8.83;5.10;;;;;6.90;101000.00;;;;5084063;28;20225;-69
2022/03/12 03:22:39;;;;;;;10.13;4.57;;;;;6.90;101001.00;;;;5101650;28;20297;-69
2022/03/12 03:25:26;;;;;;;8.47;4.60;;;;;6.90;101010.00;;;;5103891;28;20231;-70
2022/03/12 03:28:12;;;;;;;8.60;5.13;;;;;6.90;101018.00;;;;5100833;28;20221;-70
2022/03/12 03:30:59;;;;;;;9.73;5.20;;;;;6.90;101008.00;;;;5098943;28;20226;-70
2022/03/12 03:33:46;;;;;;;8.97;4.80;;;;;7.00;101011.00;;;;5094808;28;20272;-70
2022/03/12 03:36:32;;;;;;;12.20;4.97;;;;;7.00;101011.00;;;;5098806;28;20238;-70
2022/03/12 03:39:18;;;;;;;9.23;4.83;;;;;7.10;100995.00;;;;5103020;28;20222;-70
2022/03/12 03:42:05;;;;;;;8.87;5.10;;;;;7.10;101015.00;;;;5103353;28;20279;-71
2022/03/12 03:44:57;;;;;;;9.27;5.10;;;;;7.20;101013.00;;;;5087842;28;20227;-71
2022/03/12 03:47:44;;;;;;;9.13;4.83;;;;;7.30;101004.00;;;;5102055;28;20321;-71
2022/03/12 03:50:31;;;;;;;8.47;4.80;;;;;7.50;101008.00;;;;5096374;28;20231;-70
2022/03/12 03:53:21;;;;;;;9.10;5.07;;;;;7.40;101015.00;;;;5095360;28;20352;-70
2022/03/12 03:56:07;;;;;;;9.53;4.83;;;;;7.40;101021.00;;;;5092389;28;20328;-71
2022/03/12 03:58:54;;;;;;;8.67;4.67;;;;;7.40;100999.00;;;;5085376;28;20218;-70
2022/03/12 04:01:41;;;;;;;8.67;5.07;;;;;7.60;101019.00;;;;5101300;28;20389;-71
2022/03/12 04:04:31;;;;;;;10.03;5.00;;;;;7.40;101017.00;;;;5103769;28;20284;-71
2022/03/12 04:07:17;;;;;;;12.13;4.87;;;;;7.50;101028.00;;;;5104138;28;20230;-70
2022/03/12 04:10:04;;;;;;;10.43;5.47;;;;;7.50;101029.00;;;;5090622;28;20218;-69
2022/03/12 04:12:50;;;;;;;8.00;4.67;;;;;7.40;101028.00;;;;5103293;28;20585;-69
2022/03/12 04:15:37;;;;;;;7.87;4.83;;;;;7.20;101031.00;;;;5103789;28;20966;-69
2022/03/12 04:18:23;;;;;;;8.33;4.83;;;;;7.30;101033.00;;;;5100826;28;20253;-68
2022/03/12 04:21:13;;;;;;;8.73;5.30;;;;;7.20;101034.00;;;;5087165;28;20769;-70
2022/03/12 04:23:59;;;;;;;9.13;4.80;;;;;7.20;101047.00;;;;5086035;28;20296;-70
2022/03/12 04:26:46;;;;;;;8.63;5.30;;;;;7.10;101046.00;;;;5086129;28;20223;-68
2022/03/12 04:29:32;;;;;;;8.93;5.27;;;;;7.00;101047.00;;;;5085910;28;20345;-69
2022/03/12 04:32:20;;;;;;;9.33;4.87;;;;;7.00;101044.00;;;;5090211;28;20281;-69
2022/03/12 04:35:07;;;;;;;8.67;5.43;;;;;7.00;101054.00;;;;5091992;27;20260;-69
2022/03/12 04:37:55;;;;;;;10.17;5.30;;;;;7.20;101048.00;;;;5107844;27;20222;-70
2022/03/12 04:40:43;;;;;;;12.47;5.60;;;;;7.20;101047.00;;;;5090692;28;20406;-69
2022/03/12 04:43:30;;;;;;;8.87;4.87;;;;;7.20;101048.00;;;;5084507;28;20481;-67
2022/03/12 04:46:17;;;;;;;9.17;4.70;;;;;7.20;101056.00;;;;5087458;28;20226;-70
2022/03/12 04:49:05;;;;;;;10.67;5.03;;;;;7.10;101047.00;;;;5073424;28;20257;-69
2022/03/12 04:51:52;;;;;;;11.33;5.03;;;;;7.20;101050.00;;;;5087332;28;20281;-69
2022/03/12 04:54:39;;;;;;;12.10;5.30;;;;;7.20;101053.00;;;;5084092;28;20288;-69
2022/03/12 04:57:26;;;;;;;13.23;5.10;;;;;7.20;101060.00;;;;5087170;28;20305;-71
2022/03/12 05:00:17;;;;;;;10.93;5.20;;;;;7.20;101054.00;;;;5063739;28;20247;-68
2022/03/12 05:03:07;;;;;;;7.10;4.90;;;;;7.40;101057.00;;;;5049880;28;20311;-71
2022/03/12 05:06:00;;;;;;;11.77;5.00;;;;;7.30;101053.00;;;;5056020;28;20226;-71
2022/03/12 05:08:48;;;;;;;9.50;5.40;;;;;7.20;101065.00;;;;5084375;28;20242;-69
2022/03/12 05:11:38;;;;;;;9.47;5.00;;;;;7.30;101066.00;;;;5083248;28;20235;-70
2022/03/12 05:14:24;;;;;;;10.27;4.97;;;;;7.40;101072.00;;;;5084429;28;20859;-70
2022/03/12 05:17:13;;;;;;;8.33;4.77;;;;;7.30;101061.00;;;;5074755;28;20232;-70
2022/03/12 05:19:59;;;;;;;9.73;5.13;;;;;7.40;101067.00;;;;5070535;28;20446;-70
2022/03/12 05:22:46;;;;;;;8.90;5.27;;;;;7.20;101018.00;;;;5080922;28;20601;-70
2022/03/12 05:25:32;;;;;;;8.63;4.90;;;;;7.30;101071.00;;;;5081915;28;20644;-67
2022/03/12 05:28:25;;;;;;;8.33;4.67;;;;;7.30;101079.00;;;;5081575;28;20226;-71
2022/03/12 05:31:13;;;;;;;9.43;5.47;;;;;7.40;101074.00;;;;5080966;28;20226;-70
2022/03/12 05:34:00;;;;;;;9.13;5.30;;;;;7.30;101069.00;;;;5091130;28;20341;-71
2022/03/12 05:36:46;;;;;;;9.67;4.93;;;;;7.40;101086.00;;;;5083908;28;20377;-71
2022/03/12 05:39:32;;;;;;;16.17;5.53;;;;;7.40;101086.00;;;;5081706;28;20235;-70
2022/03/12 05:42:22;;;;;;;9.40;4.97;;;;;7.30;101079.00;;;;5095724;28;20349;-70
2022/03/12 05:45:10;;;;;;;10.27;5.73;;;;;7.40;101086.00;;;;5084573;28;20250;-70
2022/03/12 05:47:58;;;;;;;12.07;5.70;;;;;7.40;101084.00;;;;5079630;28;20223;-71
2022/03/12 05:50:47;;;;;;;10.00;4.73;;;;;7.30;101090.00;;;;5102658;28;20234;-70
2022/03/12 05:53:35;;;;;;;10.03;5.17;;;;;7.40;101101.00;;;;5100179;28;20227;-71
2022/03/12 05:56:22;;;;;;;9.20;4.97;;;;;7.40;101084.00;;;;5096395;28;20606;-71
2022/03/12 05:59:09;;;;;;;10.10;5.70;;;;;7.40;101089.00;;;;5095216;28;20299;-71
2022/03/12 06:01:57;;;;;;;9.90;5.53;;;;;7.50;101087.00;;;;5086661;28;20228;-70
2022/03/12 06:04:43;;;;;;;8.93;5.17;;;;;7.30;101074.00;;;;5103557;28;20610;-70
2022/03/12 06:07:30;;;;;;;10.70;5.13;;;;;7.30;101099.00;;;;5106274;28;20227;-70
2022/03/12 06:10:20;;;;;;;10.93;5.40;;;;;7.30;101082.00;;;;5089802;28;20725;-71
2022/03/12 06:13:11;;;;;;;9.67;5.60;;;;;7.30;101102.00;;;;5091855;28;20231;-71
2022/03/12 06:16:00;;;;;;;8.47;5.10;;;;;7.20;101101.00;;;;5105204;28;20304;-70
2022/03/12 06:18:48;;;;;;;10.70;5.47;;;;;7.10;101116.00;;;;5102861;28;20250;-70
2022/03/12 06:21:34;;;;;;;9.47;5.53;;;;;7.10;101115.00;;;;5095863;28;20256;-70
2022/03/12 06:24:20;;;;;;;11.93;5.33;;;;;7.00;101119.00;;;;5105064;28;20238;-70
2022/03/12 06:27:07;;;;;;;9.00;5.13;;;;;7.00;101111.00;;;;5088564;28;20780;-70
2022/03/12 06:29:56;;;;;;;8.83;5.03;;;;;7.00;101120.00;;;;5097344;28;20736;-71
2022/03/12 06:32:43;;;;;;;8.97;4.70;;;;;6.90;101108.00;;;;5097041;28;20231;-72
2022/03/12 06:35:30;;;;;;;12.07;5.07;;;;;6.80;101082.00;;;;5105819;28;20246;-70
2022/03/12 06:38:17;;;;;;;9.20;5.03;;;;;6.80;101134.00;;;;5090738;28;20233;-72
2022/03/12 06:41:04;;;;;;;10.03;4.77;;;;;6.90;101129.00;;;;5092632;28;20242;-71
2022/03/12 06:43:52;;;;;;;10.00;5.00;;;;;6.90;101139.00;;;;5104989;28;20336;-71
2022/03/12 06:46:38;;;;;;;8.53;5.23;;;;;6.90;101138.00;;;;5103140;28;20225;-71
2022/03/12 06:49:25;;;;;;;11.30;5.40;;;;;7.00;101136.00;;;;5103695;28;20712;-71
2022/03/12 06:52:12;;;;;;;12.60;5.90;;;;;7.20;101143.00;;;;5089161;28;20230;-68
2022/03/12 06:54:58;;;;;;;7.63;4.87;;;;;7.20;101150.00;;;;5104861;28;20217;-70
2022/03/12 06:57:47;;;;;;;11.20;5.57;;;;;7.30;101131.00;;;;5103907;28;20225;-71
2022/03/12 07:00:34;;;;;;;10.50;5.53;;;;;7.60;101135.00;;;;5102671;28;20242;-70
2022/03/12 07:03:20;;;;;;;12.20;5.70;;;;;7.90;101142.00;;;;5096391;28;20755;-71
2022/03/12 07:06:07;;;;;;;9.57;5.87;;;;;8.20;101139.00;;;;5089806;28;20586;-69
2022/03/12 07:08:54;;;;;;;10.70;5.90;;;;;8.50;101146.00;;;;5105051;28;20442;-71
2022/03/12 07:11:41;;;;;;;9.93;5.10;;;;;8.60;101144.00;;;;5073916;28;20226;-70
2022/03/12 07:14:28;;;;;;;9.43;5.00;;;;;8.80;101153.00;;;;5103727;28;20229;-72
2022/03/12 07:17:14;;;;;;;16.93;5.63;;;;;9.00;101160.00;;;;5078866;28;20618;-73
2022/03/12 07:20:01;;;;;;;10.70;5.97;;;;;9.00;101154.00;;;;5085692;28;20587;-72
2022/03/12 07:22:48;;;;;;;10.57;5.97;;;;;9.30;101151.00;;;;5103527;28;20710;-72
2022/03/12 07:25:35;;;;;;;8.80;5.30;;;;;9.40;101148.00;;;;5094632;28;20239;-71
2022/03/12 07:28:22;;;;;;;10.57;5.57;;;;;9.60;101161.00;;;;5085877;28;20236;-70
2022/03/12 07:31:08;;;;;;;9.30;5.07;;;;;9.50;101153.00;;;;5090067;28;20243;-69
2022/03/12 07:33:55;;;;;;;12.63;5.73;;;;;9.50;101158.00;;;;5107088;28;20304;-70
2022/03/12 07:36:43;;;;;;;11.53;5.90;;;;;9.80;101158.00;;;;5104306;28;20218;-70
2022/03/12 07:39:29;;;;;;;8.37;5.17;;;;;9.90;101139.00;;;;5101292;28;20283;-71
2022/03/12 07:42:17;;;;;;;11.37;6.20;;;;;9.80;101164.00;;;;5091152;28;20291;-70
2022/03/12 07:45:03;;;;;;;12.10;5.40;;;;;9.90;101150.00;;;;5104249;28;20236;-71
2022/03/12 07:47:52;;;;;;;9.13;5.23;;;;;10.10;101158.00;;;;5103942;28;20230;-71
2022/03/12 07:50:38;;;;;;;9.77;5.60;;;;;10.30;101166.00;;;;5100213;28;21416;-71
2022/03/12 07:53:25;;;;;;;11.17;5.97;;;;;10.30;101164.00;;;;5086926;28;20281;-72
2022/03/12 07:56:11;;;;;;;10.70;5.43;;;;;10.20;101164.00;;;;5065286;28;20296;-71
2022/03/12 07:58:59;;;;;;;9.60;5.57;;;;;10.50;101170.00;;;;5104837;28;20226;-71
2022/03/12 08:01:46;;;;;;;12.30;5.90;;;;;10.40;101163.00;;;;5104234;28;20745;-70
2022/03/12 08:04:33;;;;;;;8.93;5.20;;;;;10.60;101170.00;;;;5104483;28;20288;-71
2022/03/12 08:07:20;;;;;;;11.23;5.57;;;;;10.60;101170.00;;;;5101612;28;20226;-69
2022/03/12 08:10:07;;;;;;;12.83;5.70;;;;;10.80;101170.00;;;;5095279;28;20345;-70
2022/03/12 08:12:54;;;;;;;10.30;5.47;;;;;11.10;101181.00;;;;5106097;28;20253;-70
2022/03/12 08:15:42;;;;;;;10.57;5.60;;;;;11.30;101178.00;;;;5101232;28;20225;-69
2022/03/12 08:18:28;;;;;;;15.50;5.80;;;;;11.40;101166.00;;;;5091765;28;20242;-71
2022/03/12 08:21:16;;;;;;;11.93;5.43;;;;;11.40;101156.00;;;;5098257;28;20268;-71
2022/03/12 08:24:03;;;;;;;8.23;5.40;;;;;11.60;101184.00;;;;5109104;28;20246;-71
2022/03/12 08:26:50;;;;;;;12.07;5.33;;;;;11.50;101192.00;;;;5105791;28;20226;-71
2022/03/12 08:29:36;;;;;;;10.20;5.27;;;;;11.50;101190.00;;;;5108154;28;20304;-72
2022/03/12 08:32:24;;;;;;;7.67;5.40;;;;;11.60;101197.00;;;;5076527;28;20235;-71
2022/03/12 08:35:12;;;;;;;9.53;5.70;;;;;11.50;101196.00;;;;5092710;28;20280;-69
2022/03/12 08:37:58;;;;;;;7.93;5.40;;;;;11.60;101206.00;;;;5094242;27;20227;-73
2022/03/12 08:40:45;;;;;;;11.23;5.93;;;;;11.70;101204.00;;;;5090547;28;20227;-69
2022/03/12 08:43:32;;;;;;;8.97;5.57;;;;;11.90;101213.00;;;;5086854;28;20312;-70
2022/03/12 08:46:19;;;;;;;11.10;5.57;;;;;11.90;101210.00;;;;5071850;28;20300;-70
2022/03/12 08:49:09;;;;;;;8.97;5.33;;;;;12.00;101207.00;;;;5082397;28;20219;-72
2022/03/12 08:51:56;;;;;;;8.47;5.60;;;;;12.10;101212.00;;;;5126180;28;20219;-72
2022/03/12 08:54:42;;;;;;;9.60;5.67;;;;;12.10;101211.00;;;;5135120;27;20221;-70
2022/03/12 08:57:29;;;;;;;7.37;4.77;;;;;12.10;101218.00;;;;5135675;27;20226;-70
2022/03/12 09:00:16;;;;;;;11.33;5.17;;;;;12.40;101224.00;;;;5138634;27;20234;-70
2022/03/12 09:03:02;;;;;;;9.10;5.30;;;;;12.40;101233.00;;;;5137286;27;20222;-71
2022/03/12 09:05:51;;;;;;;8.37;5.07;;;;;12.60;101230.00;;;;5135553;28;20223;-70
2022/03/12 09:08:38;;;;;;;12.50;5.73;;;;;12.60;101230.00;;;;5135075;28;20241;-71
2022/03/12 09:11:25;;;;;;;11.97;5.33;;;;;12.70;101238.00;;;;5091498;28;20223;-71
2022/03/12 09:14:11;;;;;;;8.57;5.40;;;;;13.00;101229.00;;;;5092779;28;20210;-74
2022/03/12 09:16:58;;;;;;;8.67;5.10;;;;;13.10;101231.00;;;;5076149;28;20220;-71
2022/03/12 09:19:44;;;;;;;7.60;5.47;;;;;13.10;101207.00;;;;5053287;28;20224;-70
2022/03/12 09:22:32;;;;;;;8.93;5.40;;;;;13.20;101238.00;;;;5051860;28;20236;-70
2022/03/12 09:25:19;;;;;;;10.50;5.67;;;;;13.30;101231.00;;;;5086822;28;20829;-69
2022/03/12 09:28:07;;;;;;;9.93;5.10;;;;;13.40;101237.00;;;;5088505;28;20292;-69
2022/03/12 09:30:53;;;;;;;9.50;5.33;;;;;13.50;101246.00;;;;5106132;28;20888;-69
2022/03/12 09:33:40;;;;;;;7.77;4.97;;;;;13.40;101250.00;;;;5105065;28;20218;-70
2022/03/12 09:36:26;;;;;;;13.40;5.47;;;;;13.40;101256.00;;;;5094845;28;20227;-69
2022/03/12 09:39:13;;;;;;;8.57;5.23;;;;;13.60;101261.00;;;;5090732;28;20226;-69
2022/03/12 09:42:00;;;;;;;6.93;4.47;;;;;13.70;101266.00;;;;5106105;28;20238;-68
2022/03/12 09:44:46;;;;;;;9.33;4.90;;;;;13.70;101262.00;;;;5095966;28;20241;-69
2022/03/12 09:47:32;;;;;;;7.90;4.77;;;;;13.80;101256.00;;;;5106423;28;20236;-70
2022/03/12 09:50:19;;;;;;;8.67;5.00;;;;;13.70;101253.00;;;;5091410;28;20284;-70
2022/03/12 09:53:06;;;;;;;10.03;5.67;;;;;14.00;101257.00;;;;5106159;28;20246;-69
2022/03/12 09:55:55;;;;;;;9.27;4.90;;;;;14.10;101262.00;;;;5092481;28;20228;-71
2022/03/12 09:58:42;;;;;;;7.40;4.77;;;;;14.30;101269.00;;;;5105324;27;20230;-69
2022/03/12 10:01:28;;;;;;;10.30;4.83;;;;;14.40;101264.00;;;;5080545;28;20225;-71
2022/03/12 10:04:14;;;;;;;8.60;5.17;;;;;14.50;101267.00;;;;5070937;28;20229;-70
2022/03/12 10:07:02;;;;;;;8.00;5.50;;;;;14.60;101265.00;;;;5082516;28;20231;-70
2022/03/12 10:09:48;;;;;;;8.90;4.50;;;;;14.70;101261.00;;;;5085146;28;20679;-71
2022/03/12 10:12:36;;;;;;;9.63;4.90;;;;;14.80;101271.00;;;;5080569;28;20394;-69
2022/03/12 10:15:22;;;;;;;8.17;4.83;;;;;14.80;101273.00;;;;5085711;28;20285;-69
2022/03/12 10:18:08;;;;;;;9.43;5.00;;;;;15.00;101261.00;;;;5082011;28;20709;-70
2022/03/12 10:20:57;;;;;;;7.50;4.50;;;;;15.00;101264.00;;;;5093988;28;20722;-70
2022/03/12 10:23:43;;;;;;;9.37;5.30;;;;;15.20;101269.00;;;;5105583;28;20725;-71
2022/03/12 10:26:30;;;;;;;6.70;4.50;;;;;15.20;101261.00;;;;5094355;28;20243;-70
2022/03/12 10:29:17;;;;;;;7.50;4.93;;;;;15.40;101251.00;;;;5096678;28;20271;-70
2022/03/12 10:32:23;;;;;;;6.50;4.43;;;;;15.10;101276.00;;;;5103304;28;20269;-70
2022/03/12 10:35:12;;;;;;;8.63;5.20;;;;;15.10;101272.00;;;;5105131;28;20370;-70
2022/03/12 10:38:01;;;;;;;9.23;5.53;;;;;15.10;101276.00;;;;5105037;28;20239;-71
2022/03/12 10:40:48;;;;;;;8.87;5.37;;;;;15.00;101270.00;;;;5098367;28;20238;-69
2022/03/12 10:43:44;;;;;;;7.37;5.03;;;;;14.90;101279.00;;;;5102970;28;20234;-70
2022/03/12 10:46:34;;;;;;;11.67;5.37;;;;;15.00;101282.00;;;;5093441;28;20311;-69
2022/03/12 10:49:23;;;;;;;7.57;5.37;;;;;15.20;101287.00;;;;5087740;28;20227;-70
2022/03/12 10:52:10;;;;;;;10.27;5.23;;;;;15.40;101277.00;;;;5102395;28;20222;-70
2022/03/12 10:54:58;;;;;;;7.30;5.20;;;;;15.70;101277.00;;;;5105148;27;20580;-70
2022/03/12 10:58:12;;;;;;;7.63;4.90;;;;;15.90;101283.00;;;;5103068;27;20298;-70
2022/03/12 11:01:00;;;;;;;11.83;5.03;;;;;15.80;101270.00;;;;5077104;27;20228;-70
2022/03/12 11:03:48;;;;;;;10.57;4.83;;;;;15.90;101264.00;;;;5105429;28;20702;-70
2022/03/12 11:06:35;;;;;;;8.20;5.03;;;;;15.60;101267.00;;;;5094469;28;20919;-70
2022/03/12 11:09:34;;;;;;;6.53;4.47;;;;;15.60;101260.00;;;;5092525;28;20227;-70
2022/03/12 11:12:29;;;;;;;8.43;4.77;;;;;15.60;101261.00;;;;5096245;28;20235;-69
2022/03/12 11:15:15;;;;;;;7.83;4.87;;;;;15.90;101267.00;;;;5086028;28;20224;-69
2022/03/12 11:18:07;;;;;;;11.17;4.83;;;;;16.50;101257.00;;;;5083394;28;20239;-70
2022/03/12 11:20:55;;;;;;;7.37;4.83;;;;;16.40;101258.00;;;;5092343;28;20258;-70
2022/03/12 11:23:42;;;;;;;8.27;5.00;;;;;16.70;101233.00;;;;5102214;28;20227;-70
2022/03/12 11:26:29;;;;;;;7.50;5.17;;;;;16.80;101265.00;;;;5091867;28;20235;-71
2022/03/12 11:29:16;;;;;;;8.07;4.47;;;;;16.90;101265.00;;;;5104737;28;20246;-71
2022/03/12 11:32:05;;;;;;;9.03;4.40;;;;;17.10;101271.00;;;;5081167;28;20746;-69
2022/03/12 11:34:55;;;;;;;9.13;4.60;;;;;16.90;101265.00;;;;5101372;28;20231;-69
2022/03/12 11:37:48;;;;;;;8.70;5.10;;;;;17.00;101260.00;;;;5103909;28;20298;-69
2022/03/12 11:40:41;;;;;;;9.60;4.30;;;;;17.00;101262.00;;;;5092583;28;20352;-70
2022/03/12 11:43:30;;;;;;;7.57;3.93;;;;;17.30;101252.00;;;;5090400;28;20249;-66
2022/03/12 11:46:21;;;;;;;6.90;4.33;;;;;17.10;101254.00;;;;5086228;28;20235;-70
2022/03/12 11:49:07;;;;;;;7.23;4.70;;;;;17.00;101249.00;;;;5103696;28;20222;-66
2022/03/12 11:51:54;;;;;;;8.80;5.10;;;;;17.10;101255.00;;;;5101118;28;20241;-70
2022/03/12 11:54:43;;;;;;;8.37;3.90;;;;;17.30;101254.00;;;;5098246;28;20316;-69
2022/03/12 11:57:31;;;;;;;6.67;4.10;;;;;17.40;101265.00;;;;5103690;28;20238;-70
2022/03/12 12:00:21;;;;;;;10.30;3.80;;;;;17.30;101249.00;;;;5083979;28;20277;-73
2022/03/12 12:03:07;;;;;;;7.17;4.27;;;;;17.30;101251.00;;;;5101314;28;20226;-71
2022/03/12 12:05:56;;;;;;;7.23;3.90;;;;;17.10;101252.00;;;;5100862;28;20257;-69
2022/03/12 12:08:43;;;;;;;7.37;3.70;;;;;17.20;101249.00;;;;5103772;28;20348;-70
2022/03/12 12:11:35;;;;;;;6.90;3.67;;;;;17.00;101260.00;;;;5097003;28;20226;-70
2022/03/12 12:14:22;;;;;;;6.23;4.03;;;;;16.90;101245.00;;;;5088088;28;21097;-71
2022/03/12 12:17:08;;;;;;;6.83;3.93;;;;;16.80;101251.00;;;;5104203;28;20292;-72
2022/03/12 12:19:55;;;;;;;9.33;3.83;;;;;16.90;101244.00;;;;5094742;28;20284;-70
2022/03/12 12:22:41;;;;;;;7.30;3.67;;;;;16.90;101252.00;;;;5103379;28;20238;-71
2022/03/12 12:25:32;;;;;;;6.97;3.80;;;;;17.00;101241.00;;;;5104261;28;20765;-66
2022/03/12 12:28:21;;;;;;;5.77;3.70;;;;;17.00;101238.00;;;;5097568;28;20218;-69
2022/03/12 12:31:19;;;;;;;6.37;3.80;;;;;17.10;101241.00;;;;5103602;28;20231;-71
2022/03/12 12:34:07;;;;;;;6.93;3.70;;;;;17.00;101245.00;;;;5102003;28;20346;-70
2022/03/12 12:37:00;;;;;;;5.03;3.50;;;;;17.30;101243.00;;;;5101203;28;20826;-71
2022/03/12 12:39:46;;;;;;;9.27;3.80;;;;;17.30;101240.00;;;;5092403;28;20223;-71
2022/03/12 12:42:40;;;;;;;7.40;4.00;;;;;17.00;101238.00;;;;5091183;28;20238;-69
2022/03/12 12:45:30;;;;;;;8.43;4.20;;;;;17.10;101224.00;;;;5089564;28;20281;-71
2022/03/12 12:48:18;;;;;;;7.83;4.10;;;;;17.00;101228.00;;;;5103168;28;20680;-70
2022/03/12 12:51:07;;;;;;;6.30;4.17;;;;;16.90;101222.00;;;;5100918;28;20231;-67
2022/03/12 12:54:00;;;;;;;14.00;4.67;;;;;16.90;101231.00;;;;5094542;28;20697;-70
2022/03/12 12:57:02;;;;;;;9.17;4.57;;;;;17.10;101235.00;;;;5105498;28;20712;-70
2022/03/12 12:59:48;;;;;;;10.87;4.07;;;;;16.90;101221.00;;;;5088772;28;20230;-70
2022/03/12 13:02:43;;;;;;;7.37;4.90;;;;;17.00;101224.00;;;;5094436;28;20226;-70
2022/03/12 13:05:48;;;;;;;7.70;4.70;;;;;17.00;101221.00;;;;5093184;28;20312;-70
2022/03/12 13:08:46;;;;;;;9.03;5.43;;;;;17.10;101216.00;;;;5094099;28;20227;-69
2022/03/12 13:11:33;;;;;;;10.67;5.87;;;;;17.20;101218.00;;;;5086285;28;20223;-71
2022/03/12 13:14:21;;;;;;;9.00;5.00;;;;;17.20;101218.00;;;;5106690;28;20298;-69
2022/03/12 13:17:10;;;;;;;6.80;4.80;;;;;17.10;101216.00;;;;5107479;28;20757;-70
2022/03/12 13:19:59;;;;;;;8.57;4.77;;;;;17.20;101220.00;;;;5106493;28;20227;-71
2022/03/12 13:22:45;;;;;;;10.47;4.83;;;;;17.20;101216.00;;;;5107618;28;20292;-69
2022/03/12 13:25:46;;;;;;;8.33;5.47;;;;;17.00;101221.00;;;;5097279;27;20293;-69
2022/03/12 13:28:41;;;;;;;9.37;5.07;;;;;17.20;101221.00;;;;5078831;28;20308;-70
2022/03/12 13:31:29;;;;;;;12.97;5.63;;;;;17.30;101231.00;;;;5092271;28;20234;-66
2022/03/12 13:34:23;;;;;;;9.17;5.57;;;;;17.50;101221.00;;;;5090480;28;20231;-70
2022/03/12 13:37:12;;;;;;;8.13;5.03;;;;;17.40;101225.00;;;;5107018;28;20285;-69
2022/03/12 13:40:01;;;;;;;8.63;5.60;;;;;17.70;101221.00;;;;5106417;27;20583;-69
2022/03/12 13:42:49;;;;;;;7.93;5.33;;;;;17.50;101221.00;;;;5087116;28;20382;-70
2022/03/12 13:45:36;;;;;;;7.63;5.10;;;;;17.40;101217.00;;;;5076188;28;20231;-70
2022/03/12 13:48:22;;;;;;;7.53;5.13;;;;;17.40;101223.00;;;;5086299;28;20258;-70
2022/03/12 13:51:10;;;;;;;7.40;4.97;;;;;17.20;101225.00;;;;5086142;28;20231;-69
2022/03/12 13:53:58;;;;;;;7.77;5.30;;;;;17.00;101235.00;;;;5103874;27;20678;-71